• Join FlightAware (Why Join?)
  • Login
  • US Flag 
08:23PM EDT


 

Airport Tracker/Info


-or-


 

Live Flight TrackerFlight Track Log ✈ VP-BLX ✈ 27-Nov-2013 ✈ UUEE / SVO - MDPC / PUJ

Flight Track Log - Related Links

Times and Time Zones

All times are in EST time to prevent confusion due to time zone crossing. See the VP-BLX flight status page for this flight to view local times or setup timezone preferences in your user account.

Time Position Orientation Groundspeed Altitude Reporting Facility
EST Latitude Longitude Course Direction KTS MPH feet Rate Location/Type
11:14PM 56.0074 37.3298 290° West  Level FlightAware Approximate
11:15PM 56.0423 37.1104 280° West  Level FlightAware Approximate
11:16PM 56.0855 36.8973 281° West  Level FlightAware Approximate
11:17PM 56.1105 36.6724 281° West  Level FlightAware Approximate
11:18PM 56.1425 36.4503 286° West  Level FlightAware Approximate
11:19PM 56.1764 36.2289 285° West  Level FlightAware Approximate
11:20PM 56.2126 36.0084 287° West  Level FlightAware Approximate
11:21PM 56.2466 35.7867 284° West  Level FlightAware Approximate
11:22PM 56.2771 35.5630 284° West  Level FlightAware Approximate
11:23PM 56.3127 35.3417 287° West  Level FlightAware Approximate
11:24PM 56.3493 35.1207 287° West  Level FlightAware Approximate
11:25PM 56.3816 34.8973 285° West  Level FlightAware Approximate
11:26PM 56.4134 34.6734 284° West  Level FlightAware Approximate
11:27PM 56.4388 34.4469 285° West  Level FlightAware Approximate
11:28PM 56.4724 34.2236 285° West  Level FlightAware Approximate
11:29PM 56.5049 33.9995 285° West  Level FlightAware Approximate
11:30PM 56.5346 33.7741 283° West  Level FlightAware Approximate
11:31PM 56.5599 33.5467 280° West  Level FlightAware Approximate
11:32PM 56.5816 33.3179 280° West  Level FlightAware Approximate
11:33PM 56.6096 33.0913 283° West  Level FlightAware Approximate
11:34PM 56.6378 32.8645 283° West  Level FlightAware Approximate
11:35PM 56.6655 32.6374 283° West  Level FlightAware Approximate
11:36PM 56.6929 32.4099 282° West  Level FlightAware Approximate
11:37PM 56.7198 32.1822 282° West  Level FlightAware Approximate
11:38PM 56.7463 31.9541 282° West  Level FlightAware Approximate
11:39PM 56.7724 31.7256 282° West  Level FlightAware Approximate
11:40PM 56.7980 31.4969 282° West  Level FlightAware Approximate
11:41PM 56.8233 31.2679 281° West  Level FlightAware Approximate
11:42PM 56.8481 31.0385 281° West  Level FlightAware Approximate
11:43PM 56.8725 30.8089 281° West  Level FlightAware Approximate
11:44PM 56.8965 30.5789 281° West  Level FlightAware Approximate
11:45PM 56.9200 30.3487 281° West  Level FlightAware Approximate
11:46PM 56.9431 30.1182 281° West  Level FlightAware Approximate
11:47PM 56.9659 29.8873 280° West  Level FlightAware Approximate
11:48PM 56.9882 29.6562 280° West  Level FlightAware Approximate
11:49PM 57.0100 29.4249 280° West  Level FlightAware Approximate
11:50PM 57.0314 29.1932 280° West  Level FlightAware Approximate
11:51PM 57.0524 28.9613 280° West  Level FlightAware Approximate
11:52PM 57.0730 28.7292 279° West  Level FlightAware Approximate
11:53PM 57.0932 28.4968 279° West  Level FlightAware Approximate
11:54PM 57.1128 28.2641 279° West  Level FlightAware Approximate
11:55PM 57.1321 28.0312 279° West  Level FlightAware Approximate
11:56PM 57.1509 27.7980 279° West  Level FlightAware Approximate
11:57PM 57.1692 27.5646 278° West  Level FlightAware Approximate
11:58PM 57.1872 27.3309 278° West  Level FlightAware Approximate
11:59PM 57.2047 27.0971 278° West  Level FlightAware Approximate
12:00AM 57.2217 26.8630 278° West  Level FlightAware Approximate
12:01AM 57.2383 26.6287 278° West  Level FlightAware Approximate
12:02AM 57.2545 26.3943 277° West  Level FlightAware Approximate
12:03AM 57.2703 26.1595 277° West  Level FlightAware Approximate
12:04AM 57.2856 25.9247 277° West  Level FlightAware Approximate
12:05AM 57.3005 25.6896 277° West  Level FlightAware Approximate
12:06AM 57.3149 25.4543 277° West  Level FlightAware Approximate
12:07AM 57.3289 25.2188 276° West  Level FlightAware Approximate
12:07AM 56.7597 25.8053 276° West 454 522 34,000  Level FlightAware ADS-B
12:08AM 57.3425 24.9832 276° West  Level FlightAware Approximate
12:09AM 57.3556 24.7474 276° West  Level FlightAware Approximate
12:10AM 56.8405 25.1922 284° West  Level Estimated
12:11AM 56.8697 24.9644 283° West  Level Estimated
12:11AM 56.7513 24.8502 283° West 456 525 34,000  Level FlightAware ADS-B
12:12AM 56.7493 24.6912 269° West 458 527 34,000  Level FlightAware ADS-B
12:13AM 56.7446 24.3834 269° West 461 531 34,000  Level FlightAware ADS-B
12:13AM 56.7426 24.2636 268° West 463 533 34,000  Level FlightAware ADS-B (EPSY / SZY)
12:14AM 56.7392 24.0819 268° West 463 533 34,000  Level FlightAware ADS-B (EPSY / SZY)
12:15AM 56.7370 23.9666 268° West 464 534 34,000  Level FlightAware ADS-B (EPSY / SZY)
12:16AM 56.7334 23.7884 268° West 465 535 34,000  Level FlightAware ADS-B (EPSY / SZY)
12:16AM 56.7307 23.6679 268° West 465 535 34,000  Level FlightAware ADS-B (EPSY / SZY)
12:17AM 56.7270 23.5028 268° West 467 537 34,000  Level FlightAware ADS-B (EPSY / SZY)
12:17AM 56.7243 23.3877 268° West 471 542 34,000  Level FlightAware ADS-B (EPSY / SZY)
12:18AM 56.7199 23.2105 267° West 474 545 34,000  Level FlightAware ADS-B
12:19AM 56.7164 23.0783 267° West 475 547 34,000  Level FlightAware ADS-B (EPSY / SZY)
12:19AM 56.7128 22.9488 267° West 474 545 34,000  Level FlightAware ADS-B (EPSY / SZY)
12:20AM 56.7085 22.7980 267° West 474 545 34,000  Level FlightAware ADS-B (EPSY / SZY)
12:20AM 56.7050 22.6806 267° West 474 545 34,000  Level FlightAware ADS-B (EPSY / SZY)
12:21AM 56.7015 22.5629 267° West 475 547 34,000  Level FlightAware ADS-B (EPSY / SZY)
12:22AM 56.6949 22.3560 267° West 477 549 34,000  Level FlightAware ADS-B (EPSY / SZY)
12:22AM 56.6902 22.2155 267° West 478 550 34,000  Level FlightAware ADS-B (EPSY / SZY)
12:23AM 56.6856 22.0831 266° West 479 551 34,000  Level FlightAware ADS-B (EPSY / SZY)
12:23AM 56.6809 21.9506 266° West 480 552 34,000  Level FlightAware ADS-B (EPSY / SZY)
12:24AM 56.6730 21.7338 266° West 480 552 34,000  Level FlightAware ADS-B (EPSY / SZY)
12:25AM 56.6684 21.6140 266° West 480 552 34,000  Level FlightAware ADS-B (EPSY / SZY)
12:25AM 56.6611 21.4311 266° West 479 551 34,000  Level FlightAware ADS-B (EPSY / SZY)
12:26AM 56.6561 21.3072 266° West 479 551 34,000  Level FlightAware ADS-B (EPSY / SZY)
12:27AM 56.6492 21.1432 266° West 478 550 34,000  Level FlightAware ADS-B (EPSY / SZY)
12:27AM 56.6441 21.0241 266° West 479 551 34,000  Level FlightAware ADS-B (EPSY / SZY)
12:28AM 56.6347 20.8129 265° West 480 552 34,000  Level FlightAware ADS-B (EPSY / SZY)
12:29AM 56.6274 20.6512 265° West 482 555 34,000  Level FlightAware ADS-B (EPSY / SZY)
12:29AM 56.6215 20.5266 265° West 483 556 34,000  Level FlightAware ADS-B (EPSY / SZY)
12:30AM 56.6158 20.4073 265° West 484 557 34,000  Level FlightAware ADS-B (EPSY / SZY)
12:30AM 56.6078 20.2459 265° West 486 559 34,000  Level FlightAware ADS-B (EPSY / SZY)
12:33AM 56.6519 19.7485 279° West  Level Estimated
12:34AM 56.6715 19.5186 279° West  Level Estimated
12:35AM 56.6907 19.2884 279° West  Level Estimated
12:36AM 56.7095 19.0580 279° West  Level Estimated
12:37AM 56.7279 18.8273 278° West  Level Estimated
12:38AM 56.7459 18.5964 278° West  Level Estimated
12:39AM 56.7634 18.3654 278° West  Level Estimated
12:39AM 56.5342 18.2663 278° West 478 550 34,000  Level FlightAware ADS-B (ESMN)
12:39AM 56.5342 18.1452 270° West 479 551 34,000  Level FlightAware ADS-B (ESMN)
12:42AM 56.5745 17.5853 278° West  Level Estimated
12:43AM 56.5904 17.3549 277° West  Level Estimated
12:43AM 56.5308 17.2709 277° West 480 552 34,000  Level FlightAware ADS-B (ESMN)
12:44AM 56.5288 17.0251 269° West 479 551 34,000  Level FlightAware ADS-B (ESMN)
12:46AM 56.5555 16.6064 277° West  Level Estimated
12:46AM 56.5228 16.4911 277° West 480 552 34,000  Level FlightAware ADS-B (ESMN)
12:46AM 56.5209 16.3589 269° West 478 550 34,000  Level FlightAware ADS-B (ESMN)
12:47AM 56.5185 16.2019 268° West 475 547 34,000  Level FlightAware ADS-B (ESMN)
12:48AM 56.5163 16.0737 268° West 474 545 34,000  Level FlightAware ADS-B (ESMN)
12:48AM 56.5141 15.9507 268° West 472 543 34,000  Level FlightAware ADS-B (ESMN)
12:49AM 56.5108 15.7693 268° West 472 543 34,000  Level FlightAware ADS-B (ESMN)
12:49AM 56.5084 15.6484 268° West 472 543 34,000  Level FlightAware ADS-B (ESMN)
12:50AM 56.5052 15.4964 268° West 472 543 34,000  Level FlightAware ADS-B (ESMN)
12:51AM 56.5017 15.3411 268° West 472 543 34,000  Level FlightAware ADS-B (ESMN)
12:51AM 56.4981 15.1848 268° West 474 545 34,000  Level FlightAware ADS-B (ESMN)
12:52AM 56.4949 15.0527 268° West 475 547 34,000  Level FlightAware ADS-B (ESMN)
12:53AM 56.4917 14.9295 267° West 475 547 34,000  Level FlightAware ADS-B (ESMN)
12:53AM 56.4888 14.8197 267° West 476 548 34,000  Level FlightAware ADS-B (ESMN)
12:54AM 56.4848 14.6758 267° West 477 549 34,000  Level FlightAware ADS-B (ESMN)
12:54AM 56.4813 14.5521 267° West 477 549 34,000  Level FlightAware ADS-B (ESMN)
12:55AM 56.4768 14.4035 267° West 476 548 34,000  Level FlightAware ADS-B (ESMN)
12:55AM 56.4733 14.2888 267° West 474 545 34,000  Level FlightAware ADS-B (ESMN)
12:56AM 56.4682 14.1327 267° West 472 543 34,000  Level FlightAware ADS-B (ESMN)
12:56AM 56.4668 14.0069 269° West 467 537 34,000  Level FlightAware ADS-B (ESMN)
12:57AM 56.4675 13.8883 271° West 467 537 34,000  Level FlightAware ADS-B (ESMN)
12:57AM 56.4675 13.7753 270° West 468 539 34,000  Level FlightAware ADS-B (ESMN)
12:58AM 56.4668 13.6303 270° West 469 540 34,000  Level FlightAware ADS-B (ESMN)
12:59AM 56.4661 13.5160 269° West 470 541 34,000  Level FlightAware ADS-B (ESMN)
12:59AM 56.4652 13.3807 269° West 470 541 34,000  Level FlightAware ADS-B (ESMN)
01:00AM 56.4642 13.2612 269° West 471 542 34,000  Level FlightAware ADS-B (ESMN)
01:00AM 56.4632 13.1453 269° West 470 541 34,000  Level FlightAware ADS-B (ESMN)
01:01AM 56.4619 13.0234 269° West 471 542 34,000  Level FlightAware ADS-B (ESMN)
01:01AM 56.4607 12.9037 269° West 471 542 34,000  Level FlightAware ADS-B (ESMN)
01:02AM 56.4590 12.7705 269° West 471 542 34,000  Level FlightAware ADS-B (ESMN)
01:02AM 56.4575 12.6516 269° West 472 543 34,000  Level FlightAware ADS-B (ESMN)
01:03AM 56.4551 12.4816 269° West 471 542 34,000  Level FlightAware ADS-B (ESMN)
01:04AM 56.4526 12.3251 268° West 471 542 34,000  Level FlightAware ADS-B (ESMN)
01:04AM 56.4507 12.2056 268° West 470 541 34,000  Level FlightAware ADS-B (ESMN)
01:05AM 56.4486 12.0863 268° West 469 540 34,000  Level FlightAware ADS-B (ESMN)
01:05AM 56.4465 11.9747 268° West 468 539 34,000  Level FlightAware ADS-B (ESMN)
01:06AM 56.4433 11.8125 268° West 468 539 34,000  Level FlightAware ADS-B (ESMN)
01:06AM 56.4409 11.6926 268° West 469 540 34,000  Level FlightAware ADS-B (ESMN)
01:07AM 56.4376 11.5461 268° West 468 539 34,000  Level FlightAware ADS-B (ESMN)
01:07AM 56.4348 11.4222 268° West 468 539 34,000  Level FlightAware ADS-B (ESMN)
01:08AM 56.4310 11.2676 268° West 468 539 34,000  Level FlightAware ADS-B (ESMN)
01:09AM 56.4279 11.1448 267° West 467 537 34,000  Level FlightAware ADS-B (ESMN)
01:09AM 56.4238 10.9895 267° West 466 536 34,000  Level FlightAware ADS-B (ESMN)
01:10AM 56.4206 10.8720 267° West 467 537 34,000  Level FlightAware ADS-B (ESMN)
01:10AM 56.4174 10.7619 267° West 467 537 34,000 300 Level FlightAware ADS-B (ESMN)
01:11AM 56.4138 10.6386 267° West 469 540 34,300 540 Climbing FlightAware ADS-B (ESMN)
01:11AM 56.4104 10.5261 267° West 471 542 34,600 660 Climbing FlightAware ADS-B (ESMN)
01:12AM 56.4054 10.3672 267° West 472 543 35,100 840 Climbing FlightAware ADS-B (ESMN)
01:12AM 56.4016 10.2496 267° West 471 542 35,600 840 Climbing FlightAware ADS-B (ESMN)
01:13AM 56.3976 10.1315 267° West 471 542 36,000 360 Climbing FlightAware ADS-B (ESMN)
01:13AM 56.3932 10.0019 267° West 478 550 36,000  Level FlightAware ADS-B (ESMN)
01:14AM 56.3876 9.8442 266° West 478 550 36,000  Level FlightAware ADS-B (ESMN)
01:15AM 56.3833 9.7303 266° West 477 549 36,000  Level FlightAware ADS-B (ESMN)
01:15AM 56.3785 9.6029 266° West 477 549 36,000  Level FlightAware ADS-B (ESMN)
01:16AM 56.3731 9.4631 266° West 475 547 36,000  Level FlightAware ADS-B (ESMN)
01:16AM 56.3677 9.3286 266° West 475 547 36,000  Level FlightAware ADS-B (ESMN)
01:17AM 56.3627 9.2053 266° West 474 545 36,000  Level FlightAware ADS-B (ESMN)
01:18AM 56.3564 9.0570 266° West 473 544 36,000  Level FlightAware ADS-B (ESMN)
01:18AM 56.3509 8.9301 266° West 473 544 36,000  Level FlightAware ADS-B (ESMN)
01:19AM 56.3453 8.8025 265° West 472 543 36,000  Level FlightAware ADS-B (ESMN)
01:19AM 56.3384 8.6508 265° West 470 541 36,000  Level FlightAware ADS-B (ESMN)
01:20AM 56.3329 8.5314 265° West 470 541 36,000  Level FlightAware ADS-B (ESMN)
01:20AM 56.3256 8.3802 265° West 470 541 36,000  Level FlightAware ADS-B (ESMN)
01:21AM 56.3187 8.2386 265° West 467 537 36,000  Level FlightAware ADS-B (ESMN)
01:22AM 56.3122 8.1093 265° West 467 537 36,000  Level FlightAware ADS-B (ESMN)
01:22AM 56.3060 7.9860 265° West 465 535 36,000  Level FlightAware ADS-B (ESMN)
01:23AM 56.2934 7.7467 265° West 465 535 36,000  Level FlightAware ADS-B (ESMN)
01:24AM 56.2864 7.6174 264° West 465 535 36,000  Level FlightAware ADS-B (ESMN)
01:24AM 56.2796 7.4920 264° West 466 536 36,000  Level FlightAware ADS-B (ESMN)
01:25AM 56.2723 7.3622 264° West 469 540 36,000  Level FlightAware ADS-B (ESMN)
01:25AM 56.2626 7.1923 264° West 470 541 36,000  Level FlightAware ADS-B (ESMN)
01:28AM 56.2561 6.7281 269° West  Level Estimated
01:29AM 56.2523 6.4979 268° West  Level Estimated
01:30AM 56.2481 6.2678 268° West  Level Estimated
01:31AM 56.2434 6.0378 268° West  Level Estimated
01:31AM 56.1772 5.8814 268° West 1 1 36,000  Level FlightAware UK
01:32AM 56.1707 5.7620 264° West 1 1 36,000  Level FlightAware UK
01:32AM 56.1628 5.6440 263° West 1 1 36,000  Level FlightAware UK
01:33AM 56.1547 5.5263 263° West 1 1 36,000  Level FlightAware UK
01:33AM 56.1463 5.4096 263° West 1 1 36,000  Level FlightAware UK
01:34AM 56.1366 5.2694 263° West 1 1 36,000  Level FlightAware UK
01:34AM 56.1281 5.1528 263° West 1 1 36,000  Level FlightAware UK
01:34AM 56.1246 5.1066 262° West 460 529 36,000  Level FlightAware UK
01:35AM 56.1157 4.9912 262° West 460 529 36,000  Level FlightAware UK
01:35AM 56.1078 4.8744 263° West 460 529 36,000  Level FlightAware UK
01:36AM 56.0985 4.7595 262° West 458 527 36,000  Level FlightAware UK
01:36AM 56.0891 4.6447 262° West 458 527 36,000  Level FlightAware UK
01:37AM 56.0782 4.5077 262° West 456 525 36,000  Level FlightAware UK
01:38AM 56.0687 4.3937 262° West 456 525 36,000  Level FlightAware UK
01:38AM 56.0589 4.2796 261° West 456 525 36,000  Level FlightAware UK
01:39AM 56.0476 4.1443 262° West 458 527 36,000  Level FlightAware UK
01:39AM 56.0379 4.0291 261° West 458 527 36,000  Level FlightAware UK
01:40AM 56.0259 3.8918 261° West 458 527 36,000  Level FlightAware UK
01:40AM 56.0141 3.7556 261° West 460 529 36,000  Level FlightAware UK
01:41AM 56.0022 3.6176 261° West 460 529 36,000  Level FlightAware UK
01:42AM 55.9901 3.4808 261° West 458 527 36,000  Level FlightAware UK
01:42AM 55.9796 3.3658 261° West 458 527 36,000  Level FlightAware UK
01:43AM 55.9671 3.2310 261° West 458 527 36,000  Level FlightAware UK
01:43AM 55.9569 3.1177 261° West 456 525 36,000  Level FlightAware UK
01:44AM 55.9445 2.9821 261° West 456 525 36,000  Level FlightAware UK
01:44AM 55.9316 2.8466 260° West 456 525 36,000  Level FlightAware UK
01:45AM 55.9208 2.7335 260° West 454 522 36,000  Level FlightAware UK
01:45AM 55.9078 2.5986 260° West 456 525 36,000  Level FlightAware UK
01:46AM 55.8970 2.4853 260° West 456 525 36,000  Level FlightAware UK
01:46AM 55.8889 2.3714 263° West 456 525 36,000  Level FlightAware UK
01:47AM 55.8881 2.2575 269° West 456 525 36,000  Level FlightAware UK
01:48AM 55.8920 2.1216 273° West 458 527 36,000  Level FlightAware UK
01:48AM 55.8949 1.9620 272° West 460 529 36,000  Level FlightAware UK
01:49AM 55.8968 1.8711 272° West 463 533 36,000  Level FlightAware ADS-B (EGPD / ABZ)
01:49AM 55.8989 1.7572 272° West 460 529 36,000  Level FlightAware ADS-B (EGPD / ABZ)
01:50AM 55.9010 1.6199 272° West 460 529 36,000  Level FlightAware UK
01:50AM 55.9023 1.5643 272° West 457 526 36,000  Level FlightAware ADS-B (EGPD / ABZ)
01:51AM 55.9049 1.3965 272° West 452 520 36,000  Level FlightAware ADS-B
01:51AM 55.9052 1.3829 272° West 452 520 36,000  Level FlightAware ADS-B
01:51AM 55.9063 1.3078 272° West 452 520 36,000  Level FlightAware ADS-B (EGNT / NCL)
01:51AM 55.9071 1.2485 272° West 452 520 36,000  Level FlightAware ADS-B
01:51AM 55.9074 1.2262 271° West 452 520 36,000  Level FlightAware ADS-B
01:52AM 55.9042 1.1566 265° West 456 525 36,000  Level FlightAware ADS-B (EGNT / NCL)
01:52AM 55.8902 1.0295 259° West 457 526 36,000  Level FlightAware ADS-B (EGNT / NCL)
01:52AM 55.8873 1.0028 259° West 455 524 36,000  Level FlightAware ADS-B
01:53AM 55.8746 0.8868 259° West 457 526 36,000  Level FlightAware ADS-B (EGNT / NCL)
01:53AM 55.8654 0.8043 259° West 458 527 36,000  Level FlightAware ADS-B (EGNT / NCL)
01:54AM 55.8549 0.7102 259° West 459 528 36,000  Level FlightAware ADS-B (EGNT / NCL)
01:54AM 55.8530 0.6936 259° West 458 527 36,000  Level FlightAware ADS-B
01:54AM 55.8509 0.6747 259° West 458 527 36,000  Level FlightAware ADS-B (EGPD / ABZ)
01:55AM 55.8418 0.5944 259° West 460 529 36,000  Level FlightAware ADS-B (EGNT / NCL)
01:55AM 55.8235 0.4349 259° West 460 529 36,000  Level FlightAware ADS-B (EGPD / ABZ)
01:56AM 55.8102 0.3198 258° West 461 531 36,000  Level FlightAware ADS-B (EGPD / ABZ)
01:56AM 55.7963 0.2007 258° West 463 533 36,000  Level FlightAware ADS-B (EGPD / ABZ)
01:57AM 55.7832 0.0895 258° West 465 535 36,000  Level FlightAware ADS-B (EGPD / ABZ)
01:57AM 55.7706 -0.0168 258° West 464 534 36,000  Level FlightAware ADS-B (EGXW / WTN)
01:58AM 55.7590 -0.1142 258° West 464 534 36,000  Level FlightAware ADS-B (EGXW / WTN)
01:59AM 55.7307 -0.3487 258° West 465 535 36,000  Level FlightAware ADS-B (EGPD / ABZ)
01:59AM 55.7174 -0.4574 258° West 465 535 36,000  Level FlightAware ADS-B (EGPD / ABZ)
02:00AM 55.7039 -0.5663 258° West 464 534 36,000  Level FlightAware ADS-B (EGNT / NCL)
02:00AM 55.6879 -0.6957 258° West 464 534 36,000  Level FlightAware ADS-B (EGPD / ABZ)
02:01AM 55.6705 -0.8352 258° West 463 533 36,000  Level FlightAware ADS-B (EGNT / NCL)
02:01AM 55.6559 -0.9508 257° West 463 533 36,000  Level FlightAware ADS-B
02:02AM 55.6419 -1.0608 257° West 462 532 36,000  Level FlightAware ADS-B (EGXW / WTN)
02:02AM 55.6284 -1.1660 257° West 463 533 36,000  Level FlightAware ADS-B (EGNT / NCL)
02:02AM 55.6244 -1.1971 257° West 463 533 36,000  Level FlightAware ADS-B (EGXW / WTN)
02:03AM 55.6182 -1.2449 257° West 461 531 36,000  Level FlightAware ADS-B
02:03AM 55.6185 -1.2433 76° East 463 533 36,000  Level FlightAware ADS-B (EGXW / WTN)
02:03AM 55.6125 -1.2896 257° West 461 531 36,000  Level FlightAware ADS-B
02:03AM 55.5985 -1.3972 257° West 462 532 36,000  Level FlightAware ADS-B
02:04AM 55.5894 -1.4662 257° West 462 532 36,000  Level FlightAware ADS-B
02:04AM 55.5802 -1.5363 257° West 464 534 36,000  Level FlightAware ADS-B
02:04AM 55.5682 -1.6267 257° West 465 535 36,000  Level FlightAware ADS-B (EGNT / NCL)
02:05AM 55.5627 -1.6685 257° West 465 535 36,000  Level FlightAware ADS-B
02:05AM 55.5467 -1.7881 257° West 466 536 36,000  Level FlightAware ADS-B (EGNT / NCL)
02:05AM 55.5406 -1.8337 257° West 465 535 36,000  Level FlightAware ADS-B (EGPD / ABZ)
02:06AM 55.5303 -1.9094 257° West 465 535 36,000  Level FlightAware ADS-B (EGPD / ABZ)
02:06AM 55.5255 -1.9448 257° West 465 535 36,000  Level FlightAware ADS-B (EGPD / ABZ)
02:06AM 55.5209 -1.9793 257° West 465 535 36,000  Level FlightAware ADS-B
02:06AM 55.5209 -1.9793 257° West 466 536 36,000  Level FlightAware ADS-B (EGXW / WTN)
02:07AM 55.4984 -2.1436 256° West 463 533 36,000  Level FlightAware ADS-B (EGPD / ABZ)
02:07AM 55.4969 -2.1546 256° West 463 533 36,000  Level FlightAware ADS-B
02:07AM 55.4929 -2.1835 256° West 463 533 36,000  Level FlightAware ADS-B
02:07AM 55.4861 -2.2329 256° West 463 533 36,000  Level FlightAware ADS-B
02:08AM 55.4703 -2.3462 256° West 465 535 36,000  Level FlightAware ADS-B (EGNT / NCL)
02:08AM 55.4562 -2.4470 256° West 465 535 36,000  Level FlightAware ADS-B (EGNT / NCL)
02:09AM 55.4389 -2.5704 256° West 465 535 36,000  Level FlightAware ADS-B (EGNT / NCL)
02:09AM 55.4233 -2.6807 256° West 466 536 36,000  Level FlightAware ADS-B (EGNT / NCL)
02:10AM 55.4073 -2.7932 256° West 466 536 36,000  Level FlightAware ADS-B (EGNT / NCL)
02:10AM 55.3930 -2.8921 256° West 465 535 36,000  Level FlightAware ADS-B
02:11AM 55.3712 -3.0435 256° West 465 535 36,000  Level FlightAware ADS-B
02:11AM 55.3495 -3.1954 256° West 465 535 36,000  Level FlightAware ADS-B (EGPD / ABZ)
02:12AM 55.3319 -3.3182 256° West 464 534 36,000  Level FlightAware ADS-B
02:13AM 55.3129 -3.4499 256° West 463 533 36,000  Level FlightAware ADS-B
02:13AM 55.2968 -3.5599 256° West 463 533 36,000  Level FlightAware ADS-B
02:14AM 55.2708 -3.7407 256° West 462 532 36,000  Level FlightAware ADS-B
02:15AM 55.2528 -3.8583 255° West 461 531 36,000  Level FlightAware ADS-B (EGGP / LPL)
02:15AM 55.2309 -3.9974 255° West 458 527 36,000  Level FlightAware UK
02:15AM 55.2313 -3.9959 255° West 457 526 36,000  Level FlightAware ADS-B
02:16AM 55.2206 -4.0640 255° West 459 528 36,000  Level FlightAware ADS-B (EGGP / LPL)
02:16AM 55.2020 -4.1834 255° West 457 526 36,000  Level FlightAware ADS-B
02:17AM 55.1814 -4.3133 255° West 457 526 36,000  Level FlightAware ADS-B
02:17AM 55.1603 -4.4459 255° West 456 525 36,000  Level FlightAware UK
02:17AM 55.1588 -4.4556 255° West 458 527 36,000  Level FlightAware ADS-B
02:18AM 55.1397 -4.5748 254° West 457 526 36,000  Level FlightAware ADS-B
02:18AM 55.1216 -4.6873 254° West 457 526 36,000  Level FlightAware ADS-B
02:19AM 55.1018 -4.8083 254° West 458 527 36,000  Level FlightAware UK
02:19AM 55.0985 -4.8294 254° West 458 527 36,000  Level FlightAware ADS-B
02:20AM 55.0750 -4.9723 254° West 461 531 36,000  Level FlightAware ADS-B
02:20AM 55.0546 -5.0958 254° West 460 529 36,000  Level FlightAware ADS-B
02:21AM 55.0303 -5.2416 254° West 458 527 36,000  Level FlightAware ADS-B
02:22AM 55.0051 -5.3921 254° West 458 527 36,000  Level FlightAware ADS-B
02:22AM 54.9880 -5.4928 254° West 458 527 36,000  Level FlightAware ADS-B
02:23AM 54.9687 -5.6062 254° West 458 527 36,000  Level FlightAware ADS-B
02:23AM 54.9456 -5.7409 254° West 456 525 36,000  Level FlightAware UK
02:24AM 54.9433 -5.7547 254° West 458 527 36,000  Level FlightAware ADS-B
02:24AM 54.9181 -5.9001 253° West 458 527 36,000  Level FlightAware ADS-B
02:25AM 54.9126 -5.9315 253° West 459 528 36,000  Level FlightAware ADS-B
02:25AM 54.8791 -6.1231 253° West 458 527 36,000  Level FlightAware ADS-B
02:26AM 54.8546 -6.2620 253° West 457 526 36,000  Level FlightAware ADS-B
02:26AM 54.8348 -6.3735 253° West 454 522 36,000  Level FlightAware ADS-B
02:27AM 54.8316 -6.3914 253° West 456 525 36,000  Level FlightAware ADS-B
02:27AM 54.8232 -6.4384 253° West 456 525 36,000  Level FlightAware ADS-B
02:27AM 54.7943 -6.6005 253° West 456 525 36,000  Level FlightAware UK
02:28AM 54.7940 -6.6007 253° West 454 522 36,000  Level FlightAware ADS-B
02:28AM 54.7832 -6.6607 253° West 454 522 36,000  Level FlightAware ADS-B
02:28AM 54.7592 -6.7930 253° West 454 522 36,000  Level FlightAware ADS-B (EIDW / DUB)
02:29AM 54.7499 -6.8439 252° West 454 522 36,000  Level FlightAware ADS-B (EIDW / DUB)
02:29AM 54.7316 -6.9434 252° West 453 521 36,000  Level FlightAware ADS-B
02:30AM 54.7085 -7.0690 252° West 455 524 36,000  Level FlightAware ADS-B
02:30AM 54.6887 -7.1759 252° West 456 525 36,000  Level FlightAware ADS-B
02:30AM 54.6840 -7.2010 252° West 455 524 36,000  Level FlightAware ADS-B
02:31AM 54.6727 -7.2615 252° West 456 525 36,000  Level FlightAware ADS-B
02:31AM 54.6541 -7.3604 252° West 456 525 36,000  Level FlightAware ADS-B (EIDW / DUB)
02:32AM 54.6208 -7.5369 252° West 456 525 36,000  Level FlightAware ADS-B
02:33AM 54.5983 -7.6562 252° West 458 527 36,000  Level FlightAware UK
02:33AM 54.5922 -7.6871 252° West 456 525 36,000  Level FlightAware ADS-B
02:33AM 54.5645 -7.8281 251° West 455 524 36,000  Level FlightAware ADS-B
02:34AM 54.5360 -7.9231 243° Southwest 455 524 36,000  Level FlightAware ADS-B
02:34AM 54.5046 -8.0241 242° Southwest 455 524 36,000  Level FlightAware ADS-B
02:35AM 54.4667 -8.1459 242° Southwest 458 527 36,000  Level FlightAware UK
02:35AM 54.4512 -8.1956 242° Southwest 456 525 36,000  Level FlightAware ADS-B
02:36AM 54.4134 -8.3162 242° Southwest 455 524 36,000  Level FlightAware ADS-B
02:36AM 54.3850 -8.4059 242° Southwest 455 524 36,000  Level FlightAware ADS-B
02:37AM 54.3502 -8.5158 242° Southwest 455 524 36,000  Level FlightAware ADS-B
02:38AM 54.3201 -8.6109 242° Southwest 454 522 36,000  Level FlightAware ADS-B
02:38AM 54.2813 -8.7322 241° Southwest 453 521 36,000  Level FlightAware ADS-B
02:39AM 54.2400 -8.8614 241° Southwest 453 521 36,000  Level FlightAware ADS-B
02:39AM 54.2089 -8.9580 241° Southwest 453 521 36,000  Level FlightAware ADS-B
02:40AM 54.1755 -9.0611 241° Southwest 453 521 36,000  Level FlightAware ADS-B
02:40AM 54.1447 -9.1561 241° Southwest 453 521 36,000  Level FlightAware ADS-B
02:41AM 54.1072 -9.2710 241° Southwest 453 521 36,000  Level FlightAware ADS-B
02:42AM 54.0764 -9.3651 241° Southwest 454 522 36,000  Level FlightAware ADS-B
02:42AM 54.0461 -9.4571 241° Southwest 454 522 36,000  Level FlightAware ADS-B
02:45AM 53.9656 -9.9799 256° West  Level Estimated
02:46AM 53.9326 -10.1899 255° West  Level Estimated
02:46AM 53.8676 -9.9930 255° West 456 525 36,000  Level FlightAware ADS-B
02:47AM 53.7228 -10.4196 240° Southwest 458 527 36,000  Level FlightAware ADS-B
02:50AM 53.6468 -10.8882 255° West  Level Estimated
02:51AM 53.6124 -11.0960 254° West  Level Estimated
02:52AM 53.5777 -11.3034 254° West  Level Estimated
02:53AM 53.5426 -11.5104 254° West  Level Estimated
02:54AM 53.5071 -11.7172 254° West  Level Estimated
02:55AM 53.4713 -11.9235 254° West  Level Estimated
02:56AM 53.4352 -12.1295 254° West  Level Estimated
02:57AM 53.3987 -12.3352 253° West  Level Estimated
02:58AM 53.3618 -12.5405 253° West  Level Estimated
02:59AM 53.3246 -12.7455 253° West  Level Estimated
03:00AM 53.2870 -12.9501 253° West  Level Estimated
03:01AM 53.2491 -13.1543 253° West  Level Estimated
03:02AM 53.2109 -13.3582 253° West  Level Estimated
03:03AM 53.1722 -13.5617 253° West  Level Estimated
03:04AM 53.1333 -13.7648 252° West  Level Estimated
03:05AM 53.0940 -13.9676 252° West  Level Estimated
03:06AM 53.0544 -14.1700 252° West  Level Estimated
03:07AM 53.0144 -14.3720 252° West  Level Estimated
03:08AM 52.9740 -14.5737 252° West  Level Estimated
03:09AM 52.9334 -14.7750 252° West  Level Estimated
03:10AM 52.8923 -14.9759 251° West  Level Estimated
03:11AM 52.8510 -15.1764 251° West  Level Estimated
03:12AM 52.8093 -15.3765 251° West  Level Estimated
03:13AM 52.7673 -15.5762 251° West  Level Estimated
03:14AM 52.7249 -15.7756 251° West  Level Estimated
03:15AM 52.6823 -15.9746 251° West  Level Estimated
03:16AM 52.6392 -16.1731 250° West  Level Estimated
03:17AM 52.5959 -16.3713 250° West  Level Estimated
03:18AM 52.5522 -16.5691 250° West  Level Estimated
03:19AM 52.5082 -16.7665 250° West  Level Estimated
03:20AM 52.4638 -16.9635 250° West  Level Estimated
03:21AM 52.4192 -17.1601 250° West  Level Estimated
03:22AM 52.3742 -17.3563 249° West  Level Estimated
03:23AM 52.3289 -17.5521 249° West  Level Estimated
03:24AM 52.2832 -17.7475 249° West  Level Estimated
03:25AM 52.2373 -17.9425 249° West  Level Estimated
03:26AM 52.1910 -18.1371 249° West  Level Estimated
03:27AM 52.1444 -18.3313 249° West  Level Estimated
03:28AM 52.0975 -18.5251 249° West  Level Estimated
03:29AM 52.0502 -18.7185 248° West  Level Estimated
03:30AM 52.0027 -18.9114 248° West  Level Estimated
03:31AM 51.9548 -19.1040 248° West  Level Estimated
03:32AM 51.9066 -19.2961 248° West  Level Estimated
03:33AM 51.8581 -19.4878 248° West  Level Estimated
03:34AM 51.8093 -19.6791 248° West  Level Estimated
03:35AM 51.7602 -19.8700 247° West  Level Estimated
03:36AM 51.7108 -20.0605 247° West  Level Estimated
03:37AM 51.6611 -20.2506 247° West  Level Estimated
03:38AM 51.6110 -20.4402 247° West  Level Estimated
03:39AM 51.5607 -20.6294 247° West  Level Estimated
03:39AM 51.0000 -20.0000 249° West 451 519 36,000  Level ETMS Enhanced Traffic Management System
03:40AM 51.5101 -20.8183 247° West  Level Estimated
03:41AM 51.4591 -21.0066 247° West  Level Estimated
03:42AM 51.4079 -21.1946 246° West  Level Estimated
03:43AM 51.3563 -21.3821 246° West  Level Estimated
03:44AM 51.3045 -21.5693 246° West  Level Estimated
03:45AM 50.7260 -21.1099 248° West 451 519 36,000  Level FlightAware Transoceanic
03:46AM 50.6793 -21.2936 248° West 451 519 36,000  Level FlightAware Transoceanic
03:47AM 50.6324 -21.4770 248° West 451 519 36,000  Level FlightAware Transoceanic
03:48AM 50.5851 -21.6600 248° West 451 519 36,000  Level FlightAware Transoceanic
03:49AM 50.5376 -21.8426 248° West 451 519 36,000  Level FlightAware Transoceanic
03:50AM 50.4897 -22.0249 248° West 451 519 36,000  Level FlightAware Transoceanic
03:51AM 50.4416 -22.2067 247° West 451 519 36,000  Level FlightAware Transoceanic
03:52AM 50.3932 -22.3882 247° West 451 519 36,000  Level FlightAware Transoceanic
03:53AM 50.3446 -22.5694 247° West 451 519 36,000  Level FlightAware Transoceanic
03:54AM 50.2956 -22.7501 247° West 451 519 36,000  Level FlightAware Transoceanic
03:55AM 50.2464 -22.9305 247° West 451 519 36,000  Level FlightAware Transoceanic
03:56AM 50.1968 -23.1105 247° West 451 519 36,000  Level FlightAware Transoceanic
03:57AM 50.1471 -23.2902 247° West 451 519 36,000  Level FlightAware Transoceanic
03:58AM 50.0970 -23.4694 246° West 451 519 36,000  Level FlightAware Transoceanic
03:59AM 50.0466 -23.6483 246° West 451 519 36,000  Level FlightAware Transoceanic
04:00AM 49.9960 -23.8269 246° West 451 519 36,000  Level FlightAware Transoceanic
04:01AM 49.9451 -24.0050 246° West 451 519 36,000  Level FlightAware Transoceanic
04:02AM 49.8940 -24.1828 246° West 451 519 36,000  Level FlightAware Transoceanic
04:03AM 49.8425 -24.3601 246° West 451 519 36,000  Level FlightAware Transoceanic
04:04AM 49.7908 -24.5371 246° West 451 519 36,000  Level FlightAware Transoceanic
04:05AM 49.7388 -24.7138 245° Southwest 451 519 36,000  Level FlightAware Transoceanic
04:06AM 49.6866 -24.8900 245° Southwest 451 519 36,000  Level FlightAware Transoceanic
04:07AM 49.6341 -25.0659 245° Southwest 451 519 36,000  Level FlightAware Transoceanic
04:08AM 49.5813 -25.2414 245° Southwest 451 519 36,000  Level FlightAware Transoceanic
04:09AM 49.5283 -25.4165 245° Southwest 451 519 36,000  Level FlightAware Transoceanic
04:10AM 49.4750 -25.5912 245° Southwest 451 519 36,000  Level FlightAware Transoceanic
04:11AM 49.4214 -25.7656 245° Southwest 451 519 36,000  Level FlightAware Transoceanic
04:12AM 49.3676 -25.9396 245° Southwest 451 519 36,000  Level FlightAware Transoceanic
04:13AM 49.3135 -26.1131 244° Southwest 451 519 36,000  Level FlightAware Transoceanic
04:14AM 49.2591 -26.2863 244° Southwest 451 519 36,000  Level FlightAware Transoceanic
04:15AM 49.2045 -26.4592 244° Southwest 451 519 36,000  Level FlightAware Transoceanic
04:16AM 49.1497 -26.6316 244° Southwest 451 519 36,000  Level FlightAware Transoceanic
04:17AM 49.0946 -26.8037 244° Southwest 451 519 36,000  Level FlightAware Transoceanic
04:18AM 49.0392 -26.9753 244° Southwest 451 519 36,000  Level FlightAware Transoceanic
04:19AM 48.9836 -27.1466 244° Southwest 451 519 36,000  Level FlightAware Transoceanic
04:20AM 48.9277 -27.3175 243° Southwest 451 519 36,000  Level FlightAware Transoceanic
04:21AM 48.8715 -27.4881 243° Southwest 451 519 36,000  Level FlightAware Transoceanic
04:22AM 48.8152 -27.6582 243° Southwest 451 519 36,000  Level FlightAware Transoceanic
04:23AM 48.7585 -27.8280 243° Southwest 451 519 36,000  Level FlightAware Transoceanic
04:24AM 48.7016 -27.9974 243° Southwest 451 519 36,000  Level FlightAware Transoceanic
04:25AM 48.6445 -28.1663 243° Southwest 451 519 36,000  Level FlightAware Transoceanic
04:26AM 48.5871 -28.3350 243° Southwest 451 519 36,000  Level FlightAware Transoceanic
04:27AM 48.5295 -28.5032 243° Southwest 451 519 36,000  Level FlightAware Transoceanic
04:28AM 48.4716 -28.6710 242° Southwest 451 519 36,000  Level FlightAware Transoceanic
04:29AM 48.4135 -28.8385 242° Southwest 451 519 36,000  Level FlightAware Transoceanic
04:30AM 48.3552 -29.0056 242° Southwest 451 519 36,000  Level FlightAware Transoceanic
04:31AM 48.2966 -29.1723 242° Southwest 451 519 36,000  Level FlightAware Transoceanic
04:32AM 48.2377 -29.3386 242° Southwest 451 519 36,000  Level FlightAware Transoceanic
04:33AM 48.1786 -29.5045 242° Southwest 451 519 36,000  Level FlightAware Transoceanic
04:34AM 48.1193 -29.6700 242° Southwest 451 519 36,000  Level FlightAware Transoceanic
04:35AM 48.0598 -29.8352 242° Southwest 451 519 36,000  Level FlightAware Transoceanic
04:36AM 47.9988 -30.0033 242° Southwest  Level FlightAware Approximate
04:37AM 47.9978 -30.0068 244° Southwest  Level FlightAware Approximate
04:38AM 47.9408 -30.1778 244° Southwest  Level FlightAware Approximate
04:39AM 47.8836 -30.3485 244° Southwest  Level FlightAware Approximate
04:40AM 47.8262 -30.5188 243° Southwest  Level FlightAware Approximate
04:41AM 47.7685 -30.6887 243° Southwest  Level FlightAware Approximate
04:42AM 47.7106 -30.8582 243° Southwest  Level FlightAware Approximate
04:43AM 47.6524 -31.0274 243° Southwest  Level FlightAware Approximate
04:44AM 47.5939 -31.1962 243° Southwest  Level FlightAware Approximate
04:45AM 47.5353 -31.3646 243° Southwest  Level FlightAware Approximate
04:46AM 47.4763 -31.5327 243° Southwest  Level FlightAware Approximate
04:47AM 47.4171 -31.7003 243° Southwest  Level FlightAware Approximate
04:48AM 47.3577 -31.8676 242° Southwest  Level FlightAware Approximate
04:49AM 47.2981 -32.0345 242° Southwest  Level FlightAware Approximate
04:50AM 47.2382 -32.2010 242° Southwest  Level FlightAware Approximate
04:51AM 47.1780 -32.3672 242° Southwest  Level FlightAware Approximate
04:52AM 47.1176 -32.5330 242° Southwest  Level FlightAware Approximate
04:53AM 47.0570 -32.6983 242° Southwest  Level FlightAware Approximate
04:54AM 46.9961 -32.8634 242° Southwest  Level FlightAware Approximate
04:55AM 46.9350 -33.0280 242° Southwest  Level FlightAware Approximate
04:56AM 46.8737 -33.1923 241° Southwest  Level FlightAware Approximate
04:57AM 46.8121 -33.3562 241° Southwest  Level FlightAware Approximate
04:58AM 46.7503 -33.5197 241° Southwest  Level FlightAware Approximate
04:59AM 46.6883 -33.6828 241° Southwest  Level FlightAware Approximate
05:00AM 46.6260 -33.8456 241° Southwest  Level FlightAware Approximate
05:01AM 46.5635 -34.0080 241° Southwest  Level FlightAware Approximate
05:02AM 46.5008 -34.1700 241° Southwest  Level FlightAware Approximate
05:03AM 46.4379 -34.3316 241° Southwest  Level FlightAware Approximate
05:04AM 46.3747 -34.4929 240° Southwest  Level FlightAware Approximate
05:05AM 46.3113 -34.6538 240° Southwest  Level FlightAware Approximate
05:06AM 46.2477 -34.8143 240° Southwest  Level FlightAware Approximate
05:07AM 46.1838 -34.9745 240° Southwest  Level FlightAware Approximate
05:08AM 46.1197 -35.1343 240° Southwest  Level FlightAware Approximate
05:09AM 46.0554 -35.2937 240° Southwest  Level FlightAware Approximate
05:10AM 45.9909 -35.4527 240° Southwest  Level FlightAware Approximate
05:11AM 45.9262 -35.6114 240° Southwest  Level FlightAware Approximate
05:12AM 45.8612 -35.7697 240° Southwest  Level FlightAware Approximate
05:13AM 45.7960 -35.9276 239° Southwest  Level FlightAware Approximate
05:14AM 45.7306 -36.0851 239° Southwest  Level FlightAware Approximate
05:15AM 45.6650 -36.2423 239° Southwest  Level FlightAware Approximate
05:16AM 45.5992 -36.3991 239° Southwest  Level FlightAware Approximate
05:17AM 45.5331 -36.5556 239° Southwest  Level FlightAware Approximate
05:18AM 45.4669 -36.7117 239° Southwest  Level FlightAware Approximate
05:19AM 45.4004 -36.8674 239° Southwest  Level FlightAware Approximate
05:20AM 45.3337 -37.0227 239° Southwest  Level FlightAware Approximate
05:21AM 45.2668 -37.1777 239° Southwest  Level FlightAware Approximate
05:22AM 45.1998 -37.3323 238° Southwest  Level FlightAware Approximate
05:23AM 45.1325 -37.4866 238° Southwest  Level FlightAware Approximate
05:24AM 45.0649 -37.6405 238° Southwest  Level FlightAware Approximate
05:25AM 44.9976 -37.7943 239° Southwest  Level FlightAware Approximate
05:26AM 44.9309 -37.9486 239° Southwest  Level FlightAware Approximate
05:27AM 44.8640 -38.1025 239° Southwest  Level FlightAware Approximate
05:28AM 44.7969 -38.2560 238° Southwest  Level FlightAware Approximate
05:29AM 44.7296 -38.4092 238° Southwest  Level FlightAware Approximate
05:30AM 44.6621 -38.5620 238° Southwest  Level FlightAware Approximate
05:31AM 44.5944 -38.7145 238° Southwest  Level FlightAware Approximate
05:32AM 44.5265 -38.8666 238° Southwest  Level FlightAware Approximate
05:33AM 44.4583 -39.0182 237° Southwest  Level FlightAware Approximate
05:34AM 44.3890 -39.1688 237° Southwest  Level FlightAware Approximate
05:35AM 44.3196 -39.3190 237° Southwest  Level FlightAware Approximate
05:36AM 44.2499 -39.4688 237° Southwest  Level FlightAware Approximate
05:37AM 44.1800 -39.6183 237° Southwest  Level FlightAware Approximate
05:38AM 44.1100 -39.7674 237° Southwest  Level FlightAware Approximate
05:39AM 44.0398 -39.9161 237° Southwest  Level FlightAware Approximate
05:40AM 43.9679 -40.0632 235° Southwest  Level FlightAware Approximate
05:41AM 43.8941 -40.2082 235° Southwest  Level FlightAware Approximate
05:42AM 43.8200 -40.3529 235° Southwest  Level FlightAware Approximate
05:42AM 44.0000 -40.0000 235° Southwest 459 528 36,000  Level New York Oceanic (ODAPS)
05:43AM 43.7458 -40.4971 235° Southwest  Level FlightAware Approximate
05:44AM 43.6714 -40.6411 234° Southwest  Level FlightAware Approximate
05:45AM 43.5969 -40.7846 234° Southwest  Level FlightAware Approximate
05:45AM 43.7333 -40.5333 234° Southwest 463 533 36,000  Level New York Oceanic (ODAPS)
05:46AM 43.5221 -40.9278 234° Southwest  Level FlightAware Approximate
05:47AM 43.4472 -41.0707 234° Southwest  Level FlightAware Approximate
05:48AM 43.5536 -40.8695 234° Southwest 459 528 36,000  Level FlightAware Transoceanic
05:49AM 43.4786 -41.0132 234° Southwest 459 528 36,000  Level FlightAware Transoceanic
05:50AM 43.4034 -41.1565 234° Southwest 459 528 36,000  Level FlightAware Transoceanic
05:51AM 43.3563 -41.2556 234° Southwest 463 533 36,000  Level FlightAware Transoceanic
05:52AM 43.2804 -41.3990 234° Southwest 463 533 36,000  Level FlightAware Transoceanic
05:53AM 43.2042 -41.5420 234° Southwest 463 533 36,000  Level FlightAware Transoceanic
05:54AM 43.1279 -41.6847 234° Southwest 463 533 36,000  Level FlightAware Transoceanic
05:55AM 43.0514 -41.8270 234° Southwest 463 533 36,000  Level FlightAware Transoceanic
05:56AM 42.9748 -41.9690 234° Southwest 463 533 36,000  Level FlightAware Transoceanic
05:57AM 42.8980 -42.1106 233° Southwest 463 533 36,000  Level FlightAware Transoceanic
05:58AM 42.8209 -42.2518 233° Southwest 463 533 36,000  Level FlightAware Transoceanic
05:59AM 42.7438 -42.3927 233° Southwest 463 533 36,000  Level FlightAware Transoceanic
05:59AM 42.7333 -42.4167 233° Southwest 467 537 36,000  Level New York Oceanic (ODAPS)
06:00AM 42.6664 -42.5333 233° Southwest 463 533 36,000  Level FlightAware Transoceanic
06:01AM 42.5889 -42.6735 233° Southwest 463 533 36,000  Level FlightAware Transoceanic
06:02AM 42.5112 -42.8133 233° Southwest 463 533 36,000  Level FlightAware Transoceanic
06:03AM 42.4333 -42.9528 233° Southwest 463 533 36,000  Level FlightAware Transoceanic
06:04AM 42.3553 -43.0920 233° Southwest 463 533 36,000  Level FlightAware Transoceanic
06:05AM 42.2676 -43.2520 233° Southwest 467 537 36,000  Level FlightAware Transoceanic
06:06AM 42.1894 -43.3900 233° Southwest 467 537 36,000  Level FlightAware Transoceanic
06:07AM 42.1110 -43.5276 232° Southwest 467 537 36,000  Level FlightAware Transoceanic
06:08AM 42.0325 -43.6650 232° Southwest 467 537 36,000  Level FlightAware Transoceanic
06:09AM 41.9538 -43.8020 232° Southwest 467 537 36,000  Level FlightAware Transoceanic
06:10AM 41.8749 -43.9386 232° Southwest 467 537 36,000  Level FlightAware Transoceanic
06:11AM 41.7959 -44.0749 232° Southwest 467 537 36,000  Level FlightAware Transoceanic
06:12AM 41.7167 -44.2109 232° Southwest 467 537 36,000  Level FlightAware Transoceanic
06:13AM 41.6374 -44.3465 232° Southwest 467 537 36,000  Level FlightAware Transoceanic
06:13AM 41.6667 -44.3000 232° Southwest 474 545 36,000  Level New York Oceanic (ODAPS)
06:14AM 41.5579 -44.4819 232° Southwest 467 537 36,000  Level FlightAware Transoceanic
06:15AM 41.4782 -44.6168 232° Southwest 467 537 36,000  Level FlightAware Transoceanic
06:16AM 41.3984 -44.7515 232° Southwest 467 537 36,000  Level FlightAware Transoceanic
06:17AM 41.3184 -44.8858 232° Southwest 467 537 36,000  Level FlightAware Transoceanic
06:18AM 41.2383 -45.0198 231° Southwest 467 537 36,000  Level FlightAware Transoceanic
06:19AM 41.1836 -45.1138 231° Southwest 474 545 36,000  Level FlightAware Transoceanic
06:20AM 41.1025 -45.2483 231° Southwest 474 545 36,000  Level FlightAware Transoceanic
06:21AM 41.0213 -45.3825 231° Southwest 474 545 36,000  Level FlightAware Transoceanic
06:22AM 40.9399 -45.5163 231° Southwest 474 545 36,000  Level FlightAware Transoceanic
06:23AM 40.8584 -45.6497 231° Southwest 474 545 36,000  Level FlightAware Transoceanic
06:23AM 40.8833 -45.6000 231° Southwest 470 541 36,000  Level New York Oceanic (ODAPS)
06:24AM 40.7767 -45.7829 231° Southwest 474 545 36,000  Level FlightAware Transoceanic
06:24AM 40.7833 -45.7500 231° Southwest 485 558 36,000  Level New York Oceanic (ODAPS)
06:25AM 40.6948 -45.9157 231° Southwest 474 545 36,000  Level FlightAware Transoceanic
06:26AM 40.6128 -46.0482 231° Southwest 474 545 36,000  Level FlightAware Transoceanic
06:27AM 40.5307 -46.1804 231° Southwest 474 545 36,000  Level FlightAware Transoceanic
06:27AM 40.5167 -46.2000 231° Southwest 482 555 36,000  Level New York Oceanic (ODAPS)
06:28AM 40.4484 -46.3122 231° Southwest 474 545 36,000  Level FlightAware Transoceanic
06:29AM 40.3868 -46.4033 231° Southwest 470 541 36,000  Level FlightAware Transoceanic
06:30AM 40.2735 -46.5731 231° Southwest 485 558 36,000  Level FlightAware Transoceanic
06:31AM 40.1879 -46.7090 230° Southwest 485 558 36,000  Level FlightAware Transoceanic
06:32AM 40.1022 -46.8446 230° Southwest 485 558 36,000  Level FlightAware Transoceanic
06:33AM 40.0063 -47.0089 230° Southwest 482 555 36,000  Level FlightAware Transoceanic
06:34AM 39.9207 -47.1425 230° Southwest 482 555 36,000  Level FlightAware Transoceanic
06:35AM 39.8349 -47.2758 230° Southwest 482 555 36,000  Level FlightAware Transoceanic
06:36AM 39.7490 -47.4087 230° Southwest 482 555 36,000  Level FlightAware Transoceanic
06:37AM 39.6629 -47.5414 230° Southwest 482 555 36,000  Level FlightAware Transoceanic
06:38AM 39.5767 -47.6737 230° Southwest 482 555 36,000  Level FlightAware Transoceanic
06:39AM 39.4903 -47.8056 230° Southwest 482 555 36,000  Level FlightAware Transoceanic
06:40AM 39.4038 -47.9373 230° Southwest 482 555 36,000  Level FlightAware Transoceanic
06:41AM 39.3172 -48.0686 229° Southwest 482 555 36,000  Level FlightAware Transoceanic
06:41AM 39.3167 -48.0667 230° Southwest 484 557 36,000  Level New York Oceanic (ODAPS)
06:42AM 39.2303 -48.1996 229° Southwest 482 555 36,000  Level FlightAware Transoceanic
06:43AM 39.1434 -48.3302 229° Southwest 482 555 36,000  Level FlightAware Transoceanic
06:44AM 39.0563 -48.4606 229° Southwest 482 555 36,000  Level FlightAware Transoceanic
06:45AM 38.9690 -48.5906 229° Southwest 482 555 36,000  Level FlightAware Transoceanic
06:46AM 38.8816 -48.7203 229° Southwest 482 555 36,000  Level FlightAware Transoceanic
06:46AM 38.8500 -48.7667 229° Southwest 490 564 36,000  Level New York Oceanic (ODAPS)
06:47AM 38.7938 -48.8485 229° Southwest 484 557 36,000  Level FlightAware Transoceanic
06:48AM 38.7062 -48.9777 229° Southwest 484 557 36,000  Level FlightAware Transoceanic
06:49AM 38.6184 -49.1066 229° Southwest 484 557 36,000  Level FlightAware Transoceanic
06:50AM 38.5305 -49.2352 229° Southwest 484 557 36,000  Level FlightAware Transoceanic
06:51AM 38.4424 -49.3634 229° Southwest 484 557 36,000  Level FlightAware Transoceanic
06:52AM 38.3542 -49.4914 229° Southwest 484 557 36,000  Level FlightAware Transoceanic
06:53AM 38.2564 -49.6330 229° Southwest 490 564 36,000  Level FlightAware Transoceanic
06:54AM 38.1710 -49.7556 228° Southwest 490 564 36,000  Level FlightAware Transoceanic
06:55AM 38.0856 -49.8780 228° Southwest 490 564 36,000  Level FlightAware Transoceanic
06:55AM 38.0833 -49.8833 228° Southwest 448 516 36,000  Level New York Oceanic (ODAPS)
06:56AM 38.0000 -50.0000 221° Southwest 490 564 36,000  Level FlightAware Transoceanic
06:56AM 38.0000 -50.0000 221° Southwest 502 578 36,000  Level New York Oceanic (ODAPS)
06:57AM 37.8959 -50.1132 221° Southwest 490 564 36,000  Level FlightAware Transoceanic
06:58AM 37.7916 -50.2260 220° Southwest 490 564 36,000  Level FlightAware Transoceanic
06:59AM 37.6873 -50.3385 220° Southwest 490 564 36,000  Level FlightAware Transoceanic
07:00AM 37.5829 -50.4507 220° Southwest 490 564 36,000  Level FlightAware Transoceanic
07:01AM 37.4783 -50.5626 220° Southwest 448 516 36,000  Level FlightAware Transoceanic
07:02AM 37.3600 -50.6887 220° Southwest 502 578 36,000  Level FlightAware Transoceanic
07:03AM 37.2529 -50.8023 220° Southwest 502 578 36,000  Level FlightAware Transoceanic
07:04AM 37.1458 -50.9157 220° Southwest 502 578 36,000  Level FlightAware Transoceanic
07:05AM 37.0385 -51.0287 220° Southwest 502 578 36,000  Level FlightAware Transoceanic
07:06AM 36.9311 -51.1413 220° Southwest 502 578 36,000  Level FlightAware Transoceanic
07:07AM 36.8236 -51.2537 220° Southwest 502 578 36,000  Level FlightAware Transoceanic
07:08AM 36.7160 -51.3657 220° Southwest 502 578 36,000  Level FlightAware Transoceanic
07:08AM 36.6333 -51.4500 220° Southwest 501 577 36,000  Level New York Oceanic (ODAPS)
07:09AM 36.6083 -51.4775 220° Southwest 502 578 36,000  Level FlightAware Transoceanic
07:10AM 36.5005 -51.5889 220° Southwest 502 578 36,000  Level FlightAware Transoceanic
07:11AM 36.3926 -51.7000 220° Southwest 502 578 36,000  Level FlightAware Transoceanic
07:12AM 36.2846 -51.8108 220° Southwest 502 578 36,000  Level FlightAware Transoceanic
07:13AM 36.1765 -51.9213 219° Southwest 502 578 36,000  Level FlightAware Transoceanic
07:14AM 36.0683 -52.0315 219° Southwest 502 578 36,000  Level FlightAware Transoceanic
07:15AM 35.9806 -52.1193 219° Southwest 501 577 36,000  Level FlightAware Transoceanic
07:16AM 35.8714 -52.2297 219° Southwest 501 577 36,000  Level FlightAware Transoceanic
07:17AM 35.7622 -52.3399 219° Southwest 501 577 36,000  Level FlightAware Transoceanic
07:18AM 35.6528 -52.4497 219° Southwest 501 577 36,000  Level FlightAware Transoceanic
07:19AM 35.5434 -52.5593 219° Southwest 501 577 36,000  Level FlightAware Transoceanic
07:20AM 35.4338 -52.6685 219° Southwest 501 577 36,000  Level FlightAware Transoceanic
07:21AM 35.3242 -52.7775 219° Southwest 501 577 36,000  Level FlightAware Transoceanic
07:22AM 35.2144 -52.8862 219° Southwest 501 577 36,000  Level FlightAware Transoceanic
07:22AM 35.1333 -52.9667 219° Southwest 503 579 36,000  Level New York Oceanic (ODAPS)
07:23AM 35.1046 -52.9945 219° Southwest 501 577 36,000  Level FlightAware Transoceanic
07:24AM 34.9946 -53.1026 219° Southwest 501 577 36,000  Level FlightAware Transoceanic
07:25AM 34.8846 -53.2104 219° Southwest 501 577 36,000  Level FlightAware Transoceanic
07:26AM 34.7745 -53.3179 219° Southwest 501 577 36,000  Level FlightAware Transoceanic
07:27AM 34.6642 -53.4251 219° Southwest 501 577 36,000  Level FlightAware Transoceanic
07:28AM 34.5539 -53.5320 219° Southwest 501 577 36,000  Level FlightAware Transoceanic
07:29AM 34.4633 -53.6199 218° Southwest 503 579 36,000  Level FlightAware Transoceanic
07:30AM 34.3513 -53.7278 218° Southwest 503 579 36,000  Level FlightAware Transoceanic
07:31AM 34.2392 -53.8353 218° Southwest 503 579 36,000  Level FlightAware Transoceanic
07:32AM 34.1270 -53.9426 218° Southwest 503 579 36,000  Level FlightAware Transoceanic
07:33AM 34.0147 -54.0496 218° Southwest 503 579 36,000  Level FlightAware Transoceanic
07:34AM 33.9023 -54.1563 218° Southwest 503 579 36,000  Level FlightAware Transoceanic
07:35AM 33.7898 -54.2627 218° Southwest 503 579 36,000  Level FlightAware Transoceanic
07:36AM 33.6773 -54.3689 218° Southwest 503 579 36,000  Level FlightAware Transoceanic
07:36AM 33.6333 -54.4167 218° Southwest 497 572 36,000  Level New York Oceanic (ODAPS)
07:37AM 33.5646 -54.4748 218° Southwest 503 579 36,000  Level FlightAware Transoceanic
07:38AM 33.4519 -54.5803 218° Southwest 503 579 36,000  Level FlightAware Transoceanic
07:39AM 33.3390 -54.6857 218° Southwest 503 579 36,000  Level FlightAware Transoceanic
07:40AM 33.2261 -54.7907 218° Southwest 503 579 36,000  Level FlightAware Transoceanic
07:41AM 33.1131 -54.8955 218° Southwest 503 579 36,000  Level FlightAware Transoceanic
07:42AM 33.0000 -55.0000 222° Southwest 503 579 36,000  Level FlightAware Transoceanic
07:42AM 33.0000 -55.0000 222° Southwest 505 581 36,000  Level New York Oceanic (ODAPS)
07:43AM 32.8957 -55.1120 222° Southwest 497 572 36,000  Level FlightAware Transoceanic
07:44AM 32.7913 -55.2237 222° Southwest 497 572 36,000  Level FlightAware Transoceanic
07:45AM 32.6868 -55.3351 222° Southwest 497 572 36,000  Level FlightAware Transoceanic
07:46AM 32.5822 -55.4463 222° Southwest 497 572 36,000  Level FlightAware Transoceanic
07:47AM 32.4775 -55.5572 222° Southwest 497 572 36,000  Level FlightAware Transoceanic
07:48AM 32.3727 -55.6679 222° Southwest 505 581 36,000  Level FlightAware Transoceanic
07:49AM 32.2678 -55.7783 222° Southwest 505 581 36,000  Level FlightAware Transoceanic
07:50AM 32.1629 -55.8885 222° Southwest 505 581 36,000  Level FlightAware Transoceanic
07:50AM 32.1667 -55.9000 221° Southwest 504 580 36,000  Level New York Oceanic (ODAPS)
07:51AM 32.0578 -55.9984 222° Southwest 505 581 36,000  Level FlightAware Transoceanic
07:52AM 31.9526 -56.1080 221° Southwest 505 581 36,000  Level FlightAware Transoceanic
07:53AM 31.8474 -56.2174 221° Southwest 505 581 36,000  Level FlightAware Transoceanic
07:54AM 31.7420 -56.3266 221° Southwest 505 581 36,000  Level FlightAware Transoceanic
07:55AM 31.6366 -56.4355 221° Southwest 505 581 36,000  Level FlightAware Transoceanic
07:56AM 31.5342 -56.5539 221° Southwest 504 580 36,000  Level FlightAware Transoceanic
07:57AM 31.4284 -56.6620 221° Southwest 504 580 36,000  Level FlightAware Transoceanic
07:58AM 31.3226 -56.7698 221° Southwest 504 580 36,000  Level FlightAware Transoceanic
07:59AM 31.2167 -56.8775 221° Southwest 504 580 36,000  Level FlightAware Transoceanic
08:00AM 31.1107 -56.9848 221° Southwest 504 580 36,000  Level FlightAware Transoceanic
08:01AM 31.0046 -57.0920 221° Southwest 504 580 36,000  Level FlightAware Transoceanic
08:02AM 30.8984 -57.1989 221° Southwest 504 580 36,000  Level FlightAware Transoceanic
08:03AM 30.7921 -57.3056 221° Southwest 504 580 36,000  Level FlightAware Transoceanic
08:04AM 30.6858 -57.4120 221° Southwest 504 580 36,000  Level FlightAware Transoceanic
08:04AM 30.7333 -57.3667 221° Southwest 504 580 36,000  Level New York Oceanic (ODAPS)
08:05AM 30.5793 -57.5182 221° Southwest 504 580 36,000  Level FlightAware Transoceanic
08:06AM 30.4728 -57.6241 221° Southwest 504 580 36,000  Level FlightAware Transoceanic
08:07AM 30.3662 -57.7299 221° Southwest 504 580 36,000  Level FlightAware Transoceanic
08:08AM 30.2595 -57.8354 220° Southwest 504 580 36,000  Level FlightAware Transoceanic
08:09AM 30.1527 -57.9407 220° Southwest 504 580 36,000  Level FlightAware Transoceanic
08:10AM 30.1072 -57.9871 220° Southwest 504 580 36,000  Level FlightAware Transoceanic
08:11AM 30.0026 -58.0897 220° Southwest 504 580 36,000  Level FlightAware Transoceanic
08:12AM 29.8979 -58.1921 220° Southwest 504 580 36,000  Level FlightAware Transoceanic
08:13AM 29.7931 -58.2943 220° Southwest 504 580 36,000  Level FlightAware Transoceanic
08:14AM 29.6882 -58.3963 220° Southwest 504 580 36,000  Level FlightAware Transoceanic
08:15AM 29.5833 -58.4981 220° Southwest 504 580 36,000  Level FlightAware Transoceanic
08:16AM 29.4782 -58.5997 220° Southwest 504 580 36,000  Level FlightAware Transoceanic
08:17AM 29.3731 -58.7010 220° Southwest 504 580 36,000  Level FlightAware Transoceanic
08:18AM 29.2680 -58.8022 220° Southwest 504 580 36,000  Level FlightAware Transoceanic
08:18AM 29.2500 -58.8167 220° Southwest 507 583 36,000  Level New York Oceanic (ODAPS)
08:19AM 29.1627 -58.9031 220° Southwest 504 580 36,000  Level FlightAware Transoceanic
08:20AM 29.0574 -59.0038 220° Southwest 504 580 36,000  Level FlightAware Transoceanic
08:21AM 28.9520 -59.1044 220° Southwest 504 580 36,000  Level FlightAware Transoceanic
08:22AM 28.8465 -59.2047 220° Southwest 504 580 36,000  Level FlightAware Transoceanic
08:23AM 28.7409 -59.3048 220° Southwest 504 580 36,000  Level FlightAware Transoceanic
08:24AM 28.6263 -59.4119 220° Southwest 507 583 36,000  Level FlightAware Transoceanic
08:25AM 28.5221 -59.5104 220° Southwest 507 583 36,000  Level FlightAware Transoceanic
08:26AM 28.4178 -59.6087 220° Southwest 507 583 36,000  Level FlightAware Transoceanic
08:27AM 28.3135 -59.7068 220° Southwest 507 583 36,000  Level FlightAware Transoceanic
08:28AM 28.2090 -59.8047 220° Southwest 507 583 36,000  Level FlightAware Transoceanic
08:29AM 28.1046 -59.9025 219° Southwest 507 583 36,000  Level FlightAware Transoceanic
08:30AM 28.0000 -60.0000 221° Southwest 507 583 36,000  Level FlightAware Transoceanic
08:30AM 28.0000 -60.0000 221° Southwest 480 552 36,000  Level New York Oceanic (ODAPS)
08:31AM 27.8967 -60.1029 221° Southwest 507 583 36,000  Level FlightAware Transoceanic
08:32AM 27.7933 -60.2057 221° Southwest 507 583 36,000  Level FlightAware Transoceanic
08:32AM 27.7333 -60.2667 221° Southwest 482 555 36,000  Level New York Oceanic (ODAPS)
08:33AM 27.6898 -60.3082 221° Southwest 507 583 36,000  Level FlightAware Transoceanic
08:33AM 27.5167 -60.4667 219° Southwest 519 597 36,000  Level New York Oceanic (ODAPS)
08:34AM 27.5863 -60.4106 221° Southwest 507 583 36,000  Level FlightAware Transoceanic
08:35AM 27.4827 -60.5127 221° Southwest 507 583 36,000  Level FlightAware Transoceanic
08:36AM 27.3888 -60.6050 221° Southwest 480 552 36,000  Level FlightAware Transoceanic
08:37AM 27.2867 -60.7052 221° Southwest 480 552 36,000  Level FlightAware Transoceanic
08:38AM 27.1273 -60.8625 221° Southwest 482 555 36,000  Level FlightAware Transoceanic
08:39AM 27.0260 -60.9612 221° Southwest 482 555 36,000  Level FlightAware Transoceanic
08:40AM 26.8478 -61.0732 219° Southwest 519 597 36,000  Level FlightAware Transoceanic
08:41AM 26.7361 -61.1736 219° Southwest 519 597 36,000  Level FlightAware Transoceanic
08:42AM 26.6243 -61.2738 219° Southwest 519 597 36,000  Level FlightAware Transoceanic
08:43AM 26.5125 -61.3738 219° Southwest 519 597 36,000  Level FlightAware Transoceanic
08:44AM 26.4005 -61.4736 219° Southwest 519 597 36,000  Level FlightAware Transoceanic
08:45AM 26.2885 -61.5732 219° Southwest 519 597 36,000 480 Level FlightAware Transoceanic
08:45AM 26.1500 -61.7000 218° Southwest 507 583 37,000  Climbing New York Oceanic (ODAPS)
08:46AM 26.1765 -61.6726 218° Southwest 519 597 36,000 -1,020 Descending FlightAware Transoceanic
08:47AM 26.0643 -61.7718 218° Southwest 519 597 36,000  Level FlightAware Transoceanic
08:48AM 25.9521 -61.8709 218° Southwest 519 597 36,000  Level FlightAware Transoceanic
08:49AM 25.8398 -61.9697 218° Southwest 519 597 36,000  Level FlightAware Transoceanic
08:50AM 25.7275 -62.0684 218° Southwest 519 597 36,000  Level FlightAware Transoceanic
08:51AM 25.6151 -62.1669 218° Southwest 519 597 36,000 480 Level FlightAware Transoceanic
08:52AM 25.4805 -62.2877 218° Southwest 507 583 37,000 480 Climbing FlightAware Transoceanic
08:53AM 25.3687 -62.3850 218° Southwest 507 583 37,000  Level FlightAware Transoceanic
08:54AM 25.2568 -62.4822 218° Southwest 507 583 37,000  Level FlightAware Transoceanic
08:55AM 25.1448 -62.5791 218° Southwest 507 583 37,000  Level FlightAware Transoceanic
08:56AM 25.0328 -62.6759 218° Southwest 507 583 37,000  Level FlightAware Transoceanic
08:57AM 24.9208 -62.7725 218° Southwest 507 583 37,000  Level FlightAware Transoceanic
08:58AM 24.8086 -62.8689 218° Southwest 507 583 37,000  Level FlightAware Transoceanic
08:59AM 24.6965 -62.9652 218° Southwest 507 583 37,000  Level FlightAware Transoceanic
08:59AM 24.5833 -63.0667 218° Southwest 508 585 37,000  Level New York Oceanic (ODAPS)
09:00AM 24.5842 -63.0613 218° Southwest 507 583 37,000  Level FlightAware Transoceanic
09:01AM 24.4719 -63.1572 218° Southwest 507 583 37,000  Level FlightAware Transoceanic
09:02AM 24.3595 -63.2529 218° Southwest 507 583 37,000  Level FlightAware Transoceanic
09:03AM 24.2471 -63.3485 218° Southwest 507 583 37,000  Level FlightAware Transoceanic
09:04AM 24.1346 -63.4439 218° Southwest 507 583 37,000  Level FlightAware Transoceanic
09:05AM 24.0220 -63.5391 218° Southwest 507 583 37,000  Level FlightAware Transoceanic
09:06AM 23.9088 -63.6381 218° Southwest 508 585 37,000  Level FlightAware Transoceanic
09:07AM 23.7962 -63.7327 218° Southwest 508 585 37,000  Level FlightAware Transoceanic
09:08AM 23.6835 -63.8272 217° Southwest 508 585 37,000  Level FlightAware Transoceanic
09:09AM 23.5707 -63.9215 217° Southwest 508 585 37,000  Level FlightAware Transoceanic
09:10AM 23.4579 -64.0157 217° Southwest 508 585 37,000  Level FlightAware Transoceanic
09:11AM 23.3451 -64.1097 217° Southwest 508 585 37,000  Level FlightAware Transoceanic
09:12AM 23.2321 -64.2035 217° Southwest 508 585 37,000  Level FlightAware Transoceanic
09:13AM 23.1192 -64.2972 217° Southwest 508 585 37,000  Level FlightAware Transoceanic
09:13AM 23.0500 -64.3500 217° Southwest 488 562 37,000  Level New York Oceanic (ODAPS)
09:14AM 23.0061 -64.3907 217° Southwest 508 585 37,000  Level FlightAware Transoceanic
09:15AM 22.8931 -64.4841 217° Southwest 508 585 37,000  Level FlightAware Transoceanic
09:16AM 22.7799 -64.5773 217° Southwest 508 585 37,000  Level FlightAware Transoceanic
09:17AM 22.6667 -64.6703 217° Southwest 508 585 37,000  Level FlightAware Transoceanic
09:18AM 22.5535 -64.7632 217° Southwest 508 585 37,000  Level FlightAware Transoceanic
09:19AM 22.4567 -64.8409 217° Southwest 488 562 37,000  Level FlightAware Transoceanic
09:20AM 22.3379 -64.9385 217° Southwest 488 562 37,000  Level FlightAware Transoceanic
09:20AM 22.2833 -64.9500 230° Southwest 470 541 37,000  Level San Juan Center
09:21AM 22.2190 -65.0360 217° Southwest 488 562 37,000  Level FlightAware Transoceanic
09:21AM 22.1500 -65.0667 219° Southwest 480 552 37,000  Level San Juan Center
09:22AM 22.1000 -65.1333 230° Southwest 488 562 37,000  Level FlightAware Transoceanic
09:22AM 22.0667 -65.1667 228° Southwest 450 518 37,000  Level San Juan Center
09:23AM 22.0201 -65.2371 230° Southwest 488 562 37,000  Level FlightAware Transoceanic
09:23AM 21.9833 -65.3000 236° Southwest 480 552 37,000  Level San Juan Center
09:24AM 21.9402 -65.3408 230° Southwest 488 562 37,000  Level FlightAware Transoceanic
09:24AM 21.9000 -65.4000 228° Southwest 510 587 37,000  Level San Juan Center
09:25AM 21.8602 -65.4444 230° Southwest 488 562 37,000  Level FlightAware Transoceanic
09:25AM 21.8167 -65.5167 232° Southwest 500 575 37,000  Level San Juan Center
09:26AM 21.7802 -65.5479 230° Southwest 488 562 37,000 -900 Level FlightAware Transoceanic
09:26AM 21.7333 -65.6333 232° Southwest 470 541 36,100 -1,020 Descending San Juan Center
09:27AM 21.6500 -65.7500 232° Southwest 510 587 35,100 -1,080 Descending San Juan Center
09:28AM 21.5833 -65.8667 238° Southwest 500 575 34,000 -600 Descending San Juan Center
09:29AM 21.5000 -65.9833 232° Southwest 480 552 34,000  Level San Juan Center
09:30AM 21.4167 -66.1000 233° Southwest 480 552 34,000  Level San Juan Center
09:31AM 21.3333 -66.2000 228° Southwest 490 564 34,000  Level San Juan Center
09:33AM 21.1500 -66.4167 228° Southwest 490 564 34,000  Level San Juan Center
09:34AM 21.0667 -66.5167 228° Southwest 470 541 34,000  Level San Juan Center
09:35AM 20.9833 -66.6167 228° Southwest 480 552 34,000  Level San Juan Center
09:36AM 20.8833 -66.7333 227° Southwest 490 564 34,000  Level San Juan Center
09:37AM 20.8000 -66.8500 233° Southwest 480 552 34,000  Level San Juan Center
09:38AM 20.7167 -66.9500 228° Southwest 480 552 34,000  Level San Juan Center
09:39AM 20.6333 -67.0500 228° Southwest 480 552 34,000  Level San Juan Center
09:40AM 20.5333 -67.1667 228° Southwest 480 552 34,000  Level San Juan Center
09:41AM 20.4500 -67.2667 228° Southwest 480 552 34,000 -120 Level San Juan Center
09:42AM 20.3667 -67.3833 233° Southwest 490 564 33,800 -600 Descending San Juan Center
09:43AM 20.2833 -67.4833 228° Southwest 460 529 32,900 -960 Descending San Juan Center
09:44AM 20.2000 -67.5667 223° Southwest 450 518 31,900 -1,080 Descending San Juan Center
09:45AM 20.1167 -67.6667 228° Southwest 450 518 30,800 -1,200 Descending San Juan Center
09:46AM 20.0333 -67.7667 228° Southwest 450 518 29,500 -1,440 Descending San Juan Center
09:47AM 19.9500 -67.8667 228° Southwest 450 518 27,900 -1,560 Descending San Juan Center
09:48AM 19.8667 -67.9667 228° Southwest 440 506 26,400 -1,740 Descending San Juan Center
09:49AM 19.7833 -68.0667 228° Southwest 440 506 24,500 -1,800 Descending San Juan Center
09:50AM 19.7000 -68.1500 223° Southwest 420 483 22,800 -1,680 Descending San Juan Center
09:51AM 19.6333 -68.2500 235° Southwest 420 483 21,200 -1,680 Descending San Juan Center
09:52AM 19.5500 -68.3333 223° Southwest 410 472 19,500 -1,560 Descending San Juan Center
09:53AM 19.4833 -68.4167 230° Southwest 410 472 18,100 -1,620 Descending San Juan Center
09:54AM 19.4000 -68.5167 229° Southwest 410 472 16,300 -1,800 Descending San Juan Center
09:56AM 19.3078 -68.5804 163° South  Level FlightAware Approximate